EGQL/ADX METAR and TAF weather

Enter ICAO airport designator
Station Type Date Time Source
EGQL METAR 2020/04/09 19:50 UTC NOAA

EGQL 091950Z 11007KT 9999 FEW010 SCT020 OVC024 07/06 Q1028 WHT


Station Type Date Time Source
EGQL Decoded METAR 2020/04/09 19:50 UTC NOAA

Leuchars, United Kingdom (EGQL) 56-23N 002-52W 0M
Apr 09, 2020 - 03:50 PM EDT / 2020.04.09 1950 UTC
Wind: from the ESE (110 degrees) at 8 MPH (7 KT):0
Visibility: greater than 7 mile(s):0
Sky conditions: overcast
Temperature: 44 F (7 C)
Dew Point: 42 F (6 C)
Relative Humidity: 93%
Pressure (altimeter): 30.36 in. Hg (1028 hPa)
ob: EGQL 091950Z 11007KT 9999 FEW010 SCT020 OVC024 07/06 Q1028 WHT
cycle: 20

Station Type Date Time Source
EGQL TAF 2011/07/27 06:03 UTC NOAA

TAF TAF
AMD EGQL 270424Z 2706/2724 14005KT 9999 BKN020 PROB30
TEMPO 2706/2708 SCT012
BECMG 2708/2710 SCT025

Example: see airport list